createdAt,value
2023-09-27T06:19:07.067Z,21.50
2023-09-27T06:21:34.216Z,21.30
2023-09-27T06:24:01.067Z,21.30
2023-09-27T06:26:28.242Z,21.30
2023-09-27T06:33:50.946Z,21.20
2023-09-27T06:36:17.766Z,21.20
2023-09-27T06:38:45.326Z,21.20
2023-09-27T06:41:12.333Z,21.20
2023-09-27T06:43:39.204Z,21.20
2023-09-27T06:46:11.444Z,21.20
2023-09-27T06:48:39.157Z,21.20
2023-09-27T06:51:06.969Z,21.10
2023-09-27T06:53:34.372Z,21.10
2023-09-27T06:56:01.356Z,21.10
2023-09-27T06:58:28.802Z,21.10
2023-09-27T07:00:56.242Z,21.10
2023-09-27T07:03:26.768Z,21.10
2023-09-27T07:05:55.416Z,21.10
2023-09-27T07:08:22.328Z,21.10
2023-09-27T07:10:49.107Z,21.10
2023-09-27T07:13:16.300Z,21.10
2023-09-27T07:15:47.197Z,21.00
2023-09-27T07:18:15.297Z,21.00
2023-09-27T07:20:43.220Z,21.00
2023-09-27T07:23:15.863Z,21.00
2023-09-27T07:25:43.861Z,21.00
2023-09-27T07:28:11.323Z,21.00
2023-09-27T07:30:39.030Z,21.00
2023-09-27T07:33:12.925Z,21.00
2023-09-27T07:35:44.533Z,21.00
2023-09-27T07:38:12.295Z,21.00
2023-09-27T07:40:39.550Z,21.00
2023-09-27T07:43:06.798Z,21.00
2023-09-27T07:45:36.641Z,20.90
2023-09-27T07:48:04.788Z,20.90
2023-09-27T07:50:32.892Z,20.90
2023-09-27T07:53:00.433Z,20.90
2023-09-27T07:55:27.938Z,20.90
2023-09-27T07:57:55.833Z,20.90
2023-09-27T08:00:31.248Z,20.90
2023-09-27T08:03:04.818Z,20.90
2023-09-27T08:05:32.529Z,20.90
2023-09-27T08:07:59.335Z,20.90
2023-09-27T08:10:26.180Z,20.90
2023-09-27T08:12:52.976Z,20.80
2023-09-27T08:15:19.934Z,20.80
2023-09-27T08:17:48.892Z,20.80
2023-09-27T08:32:40.386Z,20.80
2023-09-27T08:35:08.198Z,20.70
2023-09-27T08:37:35.334Z,20.70
2023-09-27T08:40:05.071Z,20.60
2023-09-27T08:42:33.351Z,20.60
2023-09-27T08:47:29.160Z,20.60
2023-09-27T08:49:58.741Z,20.60
2023-09-27T08:52:28.237Z,20.60
2023-09-27T08:54:55.032Z,20.60
2023-09-27T08:57:24.605Z,20.50
2023-09-27T08:59:51.434Z,20.60
2023-09-27T09:02:19.170Z,20.50
2023-09-27T09:04:46.122Z,20.50
2023-09-27T09:07:14.938Z,20.50
2023-09-27T09:09:41.912Z,20.50
2023-09-27T09:12:12.393Z,20.50
2023-09-27T09:14:44.411Z,20.50
2023-09-27T09:17:12.241Z,20.60
2023-09-27T09:19:44.805Z,20.60
2023-09-27T09:22:14.146Z,20.60
2023-09-27T09:24:43.188Z,20.50
2023-09-27T09:27:16.889Z,20.50
2023-09-27T09:29:53.418Z,20.50
2023-09-27T09:32:22.570Z,20.50
2023-09-27T09:34:50.133Z,20.60
2023-09-27T09:37:29.564Z,20.60
2023-09-27T09:40:18.242Z,20.60
2023-09-27T09:42:48.903Z,20.60
2023-09-27T09:45:15.724Z,20.60
2023-09-27T09:47:47.614Z,20.60
2023-09-27T09:50:18.597Z,20.60
2023-09-27T09:52:51.528Z,20.60
2023-09-27T09:55:42.259Z,20.60
2023-09-27T09:58:36.056Z,20.60
2023-09-27T10:01:04.578Z,20.70
2023-09-27T10:03:33.136Z,20.70
2023-09-27T10:06:06.429Z,20.70
2023-09-27T10:08:40.117Z,20.70
2023-09-27T10:11:07.093Z,20.70
2023-09-27T10:13:40.261Z,20.70
2023-09-27T10:16:09.646Z,20.70
2023-09-27T10:18:42.646Z,20.70
2023-09-27T10:21:10.846Z,20.70
2023-09-27T10:23:46.895Z,20.70
2023-09-27T10:26:28.864Z,20.70
2023-09-27T10:29:05.315Z,20.80
2023-09-27T10:31:33.858Z,20.80
2023-09-27T10:34:00.737Z,20.80
2023-09-27T10:36:28.867Z,20.80
2023-09-27T10:38:55.914Z,20.90
2023-09-27T10:41:39.730Z,20.90
2023-09-27T10:44:07.171Z,20.90
2023-09-27T10:46:50.800Z,20.90
2023-09-27T10:49:28.665Z,20.90
2023-09-27T10:52:04.731Z,20.90
2023-09-27T10:54:34.911Z,21.00
2023-09-27T10:57:03.594Z,20.90
2023-09-27T10:59:30.842Z,21.00
2023-09-27T11:02:00.308Z,21.00
2023-09-27T11:04:28.057Z,21.00
2023-09-27T11:06:54.887Z,21.00
2023-09-27T11:09:21.672Z,21.00
2023-09-27T11:11:52.946Z,21.00
2023-09-27T11:14:29.970Z,21.10
2023-09-27T11:16:57.207Z,21.10
2023-09-27T11:19:28.818Z,21.10
2023-09-27T11:21:55.560Z,21.10
2023-09-27T11:24:22.450Z,21.20
2023-09-27T11:26:49.190Z,21.20
2023-09-27T11:29:16.201Z,21.20
2023-09-27T11:31:43.080Z,21.20
2023-09-27T11:34:16.425Z,21.30
2023-09-27T11:36:46.997Z,21.30
2023-09-27T11:39:14.971Z,21.30
2023-09-27T11:41:43.044Z,21.30
2023-09-27T11:44:21.122Z,21.30
2023-09-27T11:46:51.088Z,21.30
2023-09-27T11:49:19.044Z,21.30
2023-09-27T11:51:46.327Z,21.40
2023-09-27T11:54:15.821Z,21.40
2023-09-27T11:56:42.647Z,21.50
2023-09-27T11:59:09.525Z,21.50
2023-09-27T12:01:36.367Z,21.50
2023-09-27T12:04:06.745Z,21.60
2023-09-27T12:18:51.401Z,21.60
2023-09-27T12:21:18.399Z,21.90
2023-09-27T12:23:45.745Z,22.00
2023-09-27T12:26:13.738Z,22.00
2023-09-27T13:13:00.788Z,22.00
2023-09-27T13:15:27.626Z,23.20
2023-09-27T13:17:54.577Z,23.20
2023-09-27T13:20:21.697Z,23.20
2023-09-27T13:22:49.843Z,23.30
2023-09-27T13:25:17.960Z,23.30
2023-09-27T13:27:45.557Z,23.30
2023-09-27T13:30:25.740Z,23.30
2023-09-27T13:33:00.749Z,23.30
2023-09-27T13:35:27.856Z,23.40
2023-09-27T13:37:54.681Z,23.40
2023-09-27T13:40:21.490Z,23.40
2023-09-27T13:42:48.180Z,23.40
2023-09-27T13:45:15.134Z,23.40
2023-09-27T13:47:42.062Z,23.40
2023-09-27T13:50:10.400Z,23.40
2023-09-27T13:52:38.036Z,23.40
2023-09-27T13:55:05.137Z,23.40
2023-09-27T13:57:33.045Z,23.40
2023-09-27T13:59:59.935Z,23.50
2023-09-27T14:02:26.743Z,23.50
2023-09-27T14:04:55.015Z,23.50
2023-09-27T14:07:22.903Z,23.40
2023-09-27T14:09:49.742Z,23.50
2023-09-27T14:12:16.749Z,23.50
2023-09-27T14:14:45.357Z,23.50
2023-09-27T14:17:12.947Z,23.50
2023-09-27T14:19:40.350Z,23.50
2023-09-27T14:22:08.222Z,23.50
2023-09-27T14:24:35.553Z,23.50
2023-09-27T14:27:03.145Z,23.50
2023-09-27T14:29:35.725Z,23.50
2023-09-27T14:32:07.140Z,23.50
2023-09-27T14:37:08.390Z,23.50
2023-09-27T14:39:35.420Z,23.50
2023-09-27T14:42:02.320Z,23.50
2023-09-27T14:44:31.632Z,23.50
2023-09-27T14:46:58.461Z,23.50
2023-09-27T14:49:25.337Z,23.50
2023-09-27T14:51:52.718Z,23.60
2023-09-27T14:54:19.467Z,23.60
2023-09-27T14:56:46.240Z,23.60
2023-09-27T14:59:13.163Z,23.60
2023-09-27T15:01:40.041Z,23.60
2023-09-27T15:04:07.901Z,23.60
2023-09-27T15:06:34.679Z,23.60
2023-09-27T15:09:01.411Z,23.60
2023-09-27T15:11:28.280Z,23.60
2023-09-27T15:13:57.389Z,23.60
2023-09-27T15:36:07.856Z,23.50
2023-09-27T17:29:44.826Z,23.60
2023-09-27T17:32:11.628Z,23.10
2023-09-27T17:34:38.522Z,23.10
2023-09-27T17:37:05.469Z,23.00
2023-09-27T17:39:32.249Z,23.00
2023-09-27T17:42:00.333Z,23.00
2023-09-27T17:44:27.368Z,23.00
2023-09-27T17:47:01.397Z,23.00
2023-09-27T17:49:31.925Z,23.00
2023-09-27T17:51:58.706Z,23.00
2023-09-27T17:54:25.392Z,23.00
2023-09-27T17:56:52.095Z,23.00
2023-09-27T17:59:21.652Z,23.00
2023-09-27T18:01:48.809Z,23.00
2023-09-27T18:04:17.313Z,22.90
2023-09-27T18:06:43.974Z,22.90
2023-09-27T18:09:10.728Z,22.90
2023-09-27T18:11:37.675Z,22.90
2023-09-27T18:14:04.711Z,22.90
2023-09-27T18:16:31.637Z,22.90
2023-09-27T18:18:59.463Z,22.80
2023-09-27T18:21:26.302Z,22.80
2023-09-27T18:23:53.652Z,22.80
2023-09-27T18:26:21.504Z,22.80
2023-09-27T18:28:48.399Z,22.80
2023-09-27T18:31:15.314Z,22.80
2023-09-27T18:33:42.190Z,22.80
2023-09-27T18:36:08.985Z,22.80
2023-09-27T18:38:36.373Z,22.80
2023-09-27T18:41:04.096Z,22.80
2023-09-27T18:43:30.920Z,22.80
2023-09-27T18:46:00.280Z,22.70
2023-09-27T18:48:27.298Z,22.70
2023-09-27T18:50:54.452Z,22.70
2023-09-27T18:53:21.285Z,22.70
2023-09-27T18:55:48.029Z,22.70
2023-09-27T18:58:15.639Z,22.70
2023-09-27T19:00:45.739Z,22.70
2023-09-27T19:03:13.775Z,22.70
2023-09-27T19:05:40.888Z,22.70
2023-09-27T19:08:07.780Z,22.70
2023-09-27T19:10:34.841Z,22.70
2023-09-27T19:13:01.607Z,22.60
2023-09-27T19:15:28.350Z,22.60
2023-09-27T19:17:58.475Z,22.60
2023-09-27T19:20:26.555Z,22.60
2023-09-27T19:22:54.274Z,22.60
2023-09-27T19:25:21.703Z,22.60
2023-09-27T19:27:49.334Z,22.60
2023-09-27T19:30:17.159Z,22.60
2023-09-27T19:32:47.514Z,22.50
2023-09-27T19:35:15.659Z,22.50
2023-09-27T19:37:43.155Z,22.50
2023-09-27T19:40:13.776Z,22.50
2023-09-27T19:42:43.704Z,22.50
2023-09-27T19:45:11.375Z,22.50
2023-09-27T19:47:38.235Z,22.50
2023-09-27T19:50:06.343Z,22.40
2023-09-27T19:52:34.176Z,22.40
2023-09-27T19:55:01.024Z,22.40
2023-09-27T19:57:27.906Z,22.40
2023-09-27T19:59:54.738Z,22.40
2023-09-27T20:02:21.445Z,22.40
2023-09-27T20:04:48.380Z,22.40
2023-09-27T20:07:15.143Z,22.40
2023-09-27T20:09:43.127Z,22.40
2023-09-27T20:12:09.825Z,22.30
2023-09-27T20:14:36.814Z,22.30
2023-09-27T20:17:03.826Z,22.30
2023-09-27T20:19:30.810Z,22.30
2023-09-27T20:21:57.638Z,22.20
2023-09-27T20:24:26.059Z,22.20
2023-09-27T20:26:52.738Z,22.20
2023-09-27T20:29:20.077Z,22.20
2023-09-27T20:31:46.849Z,22.20
2023-09-27T20:34:13.596Z,22.20
2023-09-27T20:36:40.277Z,22.10
2023-09-27T20:39:06.990Z,22.10
2023-09-27T20:41:33.632Z,22.10
2023-09-27T20:44:00.386Z,22.10
2023-09-27T20:46:27.132Z,22.10
2023-09-27T20:48:56.253Z,22.10
2023-09-27T20:51:23.076Z,22.10
2023-09-27T20:53:49.855Z,22.10
2023-09-27T20:56:16.595Z,22.10
2023-09-27T20:58:43.760Z,22.10
2023-09-27T21:01:36.699Z,22.10
2023-09-27T21:04:04.142Z,22.10
2023-09-27T21:06:31.302Z,22.10
2023-09-27T21:09:04.125Z,22.00
2023-09-27T21:11:31.385Z,22.10
2023-09-27T21:13:59.674Z,22.00
2023-09-27T21:16:27.241Z,22.00
2023-09-27T21:18:55.209Z,22.00
2023-09-27T21:21:23.372Z,22.00
2023-09-27T21:23:50.896Z,22.00
2023-09-27T21:26:17.997Z,22.00
2023-09-27T21:28:44.836Z,22.00
2023-09-27T21:31:15.403Z,22.00
2023-09-27T21:33:43.272Z,22.00
2023-09-27T21:36:11.921Z,22.10
2023-09-27T21:38:39.924Z,22.00
2023-09-27T21:41:06.950Z,22.00
2023-09-27T21:43:34.484Z,22.00
2023-09-27T21:46:02.069Z,22.00
2023-09-27T21:48:30.000Z,22.00
2023-09-27T21:50:56.698Z,22.00
2023-09-27T21:53:23.454Z,22.00
2023-09-27T21:55:50.187Z,22.00
2023-09-27T21:58:16.889Z,22.00
2023-09-27T22:00:43.805Z,22.00
2023-09-27T22:03:13.043Z,22.00
2023-09-27T22:05:40.265Z,22.00
2023-09-27T22:08:17.307Z,22.00
2023-09-27T22:10:44.918Z,22.00
2023-09-27T22:13:23.987Z,22.00
2023-09-27T22:15:55.802Z,22.00
2023-09-27T22:18:23.916Z,22.00
2023-09-27T22:20:51.242Z,22.00
2023-09-27T22:23:32.656Z,22.00
2023-09-27T22:26:06.531Z,22.00
2023-09-27T22:28:33.414Z,22.00
2023-09-27T22:31:01.778Z,22.00
2023-09-27T22:33:34.118Z,22.00
2023-09-27T22:36:02.141Z,22.10
2023-09-27T22:38:28.935Z,22.00
2023-09-27T22:40:58.467Z,22.00
2023-09-27T22:45:53.653Z,22.00
2023-09-27T22:48:20.902Z,22.00
2023-09-27T22:50:49.588Z,22.00
2023-09-27T22:53:17.332Z,22.00
2023-09-27T22:55:51.812Z,22.10
2023-09-27T22:58:19.402Z,22.00
2023-09-27T23:00:47.392Z,22.00
2023-09-27T23:03:14.903Z,22.00
2023-09-27T23:05:45.221Z,22.00
2023-09-27T23:08:13.487Z,22.10
2023-09-27T23:10:41.074Z,22.00
2023-09-27T23:13:25.288Z,22.00
2023-09-27T23:15:55.772Z,22.00
2023-09-27T23:18:30.935Z,22.00
2023-09-27T23:20:58.895Z,22.00
2023-09-27T23:23:26.348Z,22.00
2023-09-27T23:25:55.060Z,22.00
2023-09-27T23:28:40.905Z,22.00
2023-09-27T23:31:11.708Z,22.00
2023-09-27T23:33:43.272Z,22.00
2023-09-27T23:36:24.977Z,22.00
2023-09-27T23:38:58.513Z,22.00
2023-09-27T23:41:30.231Z,22.00
2023-09-27T23:44:06.264Z,21.90
2023-09-27T23:46:40.062Z,21.90
2023-09-27T23:49:07.516Z,21.90
2023-09-27T23:51:34.453Z,21.90
2023-09-27T23:54:03.548Z,22.00
2023-09-27T23:56:33.234Z,21.90
2023-09-27T23:59:08.946Z,22.00
